Hauptseite
METAR-TAF:

METAR-TAF

Flughäfen :

RAF Linton-on-Ouse

Linton-on-Ouse, England

Breite: 54-03N, Länge: 001-15W, Höhe: 16 m

Beobachtung

Neuester Wetterbericht von vor 1 Stunde und 0 Minuten, um 18:50 UTC
Wind 5 kt aus West
Temperatur 15°C
Luftfeuchtigkeit 59%
Luftdruck 1016 hPa
Sichtweite 10 km oder mehr

METAR: EGXU 221850Z AUTO 28005KT 9999 // NCD 15/07 Q1016

Zeit: 20:50 (19:50 UTC)

Prognose

Neuester Wetterbericht von vor 6 Stunden und 30 Minuten, um 13:20 UTC
Gültige Prognose vom 22 um 15 UTC bis 22 um 18 UTC
Wind 15 kt aus West
Sichtweite 10 km oder mehr
keine Wolken unter 1500 m und keine Kumulonimbus oder Gewitterwolken

TAF: EGXU 221320Z 2215/2218 27015KT CAVOK

Wetterbeobachtungen und Prognosen von mehr als 4000 Flughäfen (METAR und TAF Bericht).

Die verfügbaren Stationen werden durch gelbe und rote Markierungen auf der Karte dargestellt.

Führen Sie die Maus auf sie, um den Namen der Station zu sehen.

Darauf klicken, um die Beobachtung von Wetterbeobachtungen und Prognosen zu sehen.

Um die Karte zu ändern : klicken Sie auf den grünen Tasten mit einem schwarzen Kreuz Zum Vergrößern, auf den grünen Button mit einem Gedankenstrich zu verkleinern, oder auf die grünen Pfeile für benachbarte Karten.


METAR-TAF: